Time;durP1;ratioP1;P1;durP2;ratioP2;P2;SDS_P1;SDS_P2;PMS_P1;PMS_P2;Temp;Humidity;BMP_temperature;BMP_pressure;BME280_temperature;BME280_humidity;BME280_pressure;Samples;Min_cycle;Max_cycle;Signal;HPM_P1;HPM_P2
2021/08/24 00:00:58;;;;;;;4.37;3.97;;;22.90;39.50;;;;;;5036415;28;20230;-65
2021/08/24 00:03:24;;;;;;;3.77;3.47;;;22.90;39.40;;;;;;5036022;28;20227;-65
2021/08/24 00:05:50;;;;;;;3.93;3.53;;;22.90;39.40;;;;;;5034947;28;20227;-65
2021/08/24 00:08:16;;;;;;;7.30;4.03;;;22.90;39.30;;;;;;5036442;28;20314;-64
2021/08/24 00:10:46;;;;;;;3.87;3.57;;;22.90;39.30;;;;;;5035024;28;20282;-66
2021/08/24 00:13:12;;;;;;;4.03;3.73;;;22.90;39.30;;;;;;5036271;28;20461;-66
2021/08/24 00:15:38;;;;;;;3.90;3.60;;;22.90;39.30;;;;;;5035030;28;20462;-65
2021/08/24 00:18:04;;;;;;;3.80;3.50;;;22.90;39.20;;;;;;5036269;28;20515;-64
2021/08/24 00:20:32;;;;;;;4.00;3.70;;;22.90;39.20;;;;;;5034001;28;20466;-65
2021/08/24 00:23:05;;;;;;;3.90;3.70;;;22.90;39.10;;;;;;5036171;28;20314;-65
2021/08/24 00:25:30;;;;;;;3.40;3.23;;;22.90;39.10;;;;;;5034474;28;20446;-65
2021/08/24 00:27:56;;;;;;;3.93;3.63;;;22.90;39.10;;;;;;5035919;28;20457;-65
2021/08/24 00:30:21;;;;;;;3.97;3.77;;;22.90;39.00;;;;;;5034467;28;20232;-65
2021/08/24 00:32:47;;;;;;;4.13;3.83;;;22.90;39.00;;;;;;5035795;28;20228;-65
2021/08/24 00:35:13;;;;;;;3.60;3.40;;;22.90;39.00;;;;;;5034160;28;20231;-65
2021/08/24 00:37:39;;;;;;;3.37;3.17;;;22.80;38.90;;;;;;5035856;28;20622;-64
2021/08/24 00:40:07;;;;;;;3.83;3.63;;;22.80;38.90;;;;;;5035570;28;20230;-64
2021/08/24 00:42:32;;;;;;;4.40;4.00;;;22.90;38.90;;;;;;5034386;28;20223;-64
2021/08/24 00:44:58;;;;;;;4.43;4.10;;;22.80;38.90;;;;;;5035431;28;21014;-64
2021/08/24 00:47:26;;;;;;;4.20;3.90;;;22.80;38.80;;;;;;5034240;28;20235;-64
2021/08/24 00:49:55;;;;;;;3.60;3.40;;;22.80;38.80;;;;;;5035024;28;20326;-63
2021/08/24 00:52:24;;;;;;;3.77;3.57;;;22.80;38.80;;;;;;5034399;28;20457;-64
2021/08/24 00:54:50;;;;;;;6.03;3.50;;;22.80;38.70;;;;;;5035564;28;20797;-64
2021/08/24 00:57:20;;;;;;;2.73;2.60;;;22.80;38.70;;;;;;5033961;28;20461;-64
2021/08/24 00:59:46;;;;;;;3.57;3.37;;;22.80;38.60;;;;;;5035173;28;20226;-64
2021/08/24 01:02:15;;;;;;;3.73;3.50;;;22.80;38.50;;;;;;5034690;28;20504;-64
2021/08/24 01:04:41;;;;;;;3.60;3.30;;;22.80;38.60;;;;;;5034936;28;20442;-64
2021/08/24 01:07:12;;;;;;;3.70;3.40;;;22.80;38.50;;;;;;5034288;28;20967;-64
2021/08/24 01:09:48;;;;;;;3.43;3.23;;;22.80;38.50;;;;;;5035410;28;20579;-65
2021/08/24 01:12:43;;;;;;;3.13;2.93;;;22.80;38.40;;;;;;5034050;28;20453;-64
2021/08/24 01:15:32;;;;;;;3.47;3.20;;;22.80;38.40;;;;;;5034410;28;20476;-64
2021/08/24 01:18:19;;;;;;;4.03;3.50;;;22.80;38.40;;;;;;5024928;28;20485;-64
2021/08/24 01:21:18;;;;;;;3.27;3.07;;;22.80;38.40;;;;;;5033491;28;20521;-65
2021/08/24 01:23:46;;;;;;;3.50;3.30;;;22.80;38.30;;;;;;5037451;28;20508;-65
2021/08/24 01:26:27;;;;;;;3.63;3.43;;;22.80;38.40;;;;;;5039687;28;20442;-64
2021/08/24 01:29:15;;;;;;;3.93;3.43;;;22.80;38.20;;;;;;5037828;28;20563;-64
2021/08/24 01:32:26;;;;;;;3.57;3.33;;;22.80;38.20;;;;;;5037189;28;21390;-64
2021/08/24 01:35:06;;;;;;;6.83;3.90;;;22.70;38.00;;;;;;5038025;28;20462;-64
2021/08/24 01:41:07;;;;;;;3.50;3.20;;;22.70;37.90;;;;;;5038495;28;20441;-64
2021/08/24 01:43:48;;;;;;;3.63;3.43;;;22.70;37.80;;;;;;5036990;28;20526;-64
2021/08/24 01:46:26;;;;;;;3.60;3.37;;;22.70;37.70;;;;;;5038747;28;20465;-64
2021/08/24 01:48:57;;;;;;;3.03;2.83;;;22.70;37.60;;;;;;5037714;28;20546;-64
2021/08/24 01:51:26;;;;;;;3.00;2.80;;;22.70;37.60;;;;;;5037348;28;20895;-64
2021/08/24 01:53:58;;;;;;;3.07;2.87;;;22.70;37.70;;;;;;5039038;28;20453;-64
2021/08/24 01:56:29;;;;;;;3.20;3.00;;;22.70;37.40;;;;;;5036764;28;20469;-65
2021/08/24 01:58:59;;;;;;;4.83;3.07;;;22.70;38.10;;;;;;5038736;28;20538;-65
2021/08/24 02:01:33;;;;;;;3.23;3.00;;;22.70;37.40;;;;;;5037212;28;20881;-65
2021/08/24 02:04:00;;;;;;;3.63;3.10;;;22.70;37.20;;;;;;5038889;28;20445;-65
2021/08/24 02:06:47;;;;;;;2.80;2.60;;;22.70;37.20;;;;;;5037266;28;20454;-64
2021/08/24 02:09:29;;;;;;;3.30;3.10;;;22.70;37.10;;;;;;5037455;28;21019;-65
2021/08/24 02:11:55;;;;;;;3.53;3.33;;;22.70;37.10;;;;;;5038842;28;20446;-65
2021/08/24 02:14:22;;;;;;;3.30;3.10;;;22.70;37.10;;;;;;5036761;28;20457;-64
2021/08/24 02:16:49;;;;;;;3.60;3.30;;;22.60;37.00;;;;;;5038493;28;20227;-64
2021/08/24 02:19:23;;;;;;;2.93;2.73;;;22.70;37.10;;;;;;5036432;28;20959;-64
2021/08/24 02:21:55;;;;;;;3.33;3.03;;;22.70;37.00;;;;;;5038744;28;20491;-64
2021/08/24 02:24:27;;;;;;;2.90;2.60;;;22.70;36.90;;;;;;5037354;28;20446;-64
2021/08/24 02:27:13;;;;;;;3.50;3.30;;;22.60;36.80;;;;;;5037697;28;20446;-65
2021/08/24 02:29:39;;;;;;;2.67;2.50;;;22.70;36.80;;;;;;5037688;28;20454;-65
2021/08/24 02:32:21;;;;;;;2.70;2.50;;;22.60;36.70;;;;;;5036567;28;20449;-65
2021/08/24 02:34:55;;;;;;;2.73;2.60;;;22.60;36.70;;;;;;5036340;28;20688;-65
2021/08/24 02:37:41;;;;;;;2.90;2.70;;;22.60;36.70;;;;;;5037096;28;20455;-65
2021/08/24 02:40:26;;;;;;;4.63;3.10;;;22.70;36.80;;;;;;5036892;28;20442;-66
2021/08/24 02:43:13;;;;;;;3.07;2.87;;;22.60;36.70;;;;;;5036386;28;20442;-63
2021/08/24 02:45:43;;;;;;;3.07;2.87;;;22.60;36.60;;;;;;5037675;28;20463;-64
2021/08/24 02:48:11;;;;;;;3.37;3.17;;;22.60;36.70;;;;;;5036477;28;20496;-64
2021/08/24 02:50:39;;;;;;;2.97;2.77;;;22.60;36.60;;;;;;5037520;28;20469;-64
2021/08/24 02:53:04;;;;;;;3.20;3.00;;;22.60;36.60;;;;;;5037029;28;20638;-64
2021/08/24 02:55:30;;;;;;;2.57;2.47;;;22.60;36.60;;;;;;5037239;28;21233;-64
2021/08/24 02:57:56;;;;;;;4.73;3.33;;;22.60;36.50;;;;;;5036132;28;20767;-64
2021/08/24 03:00:22;;;;;;;3.00;2.77;;;22.60;36.50;;;;;;5037952;28;20223;-64
2021/08/24 03:02:47;;;;;;;3.40;3.20;;;22.60;36.50;;;;;;5035260;28;20447;-64
2021/08/24 03:05:13;;;;;;;3.00;2.80;;;22.60;36.50;;;;;;5036465;28;20259;-64
2021/08/24 03:07:40;;;;;;;3.20;3.00;;;22.60;36.50;;;;;;5035852;28;20227;-64
2021/08/24 03:10:10;;;;;;;3.03;2.83;;;22.60;36.50;;;;;;5037441;28;20426;-64
2021/08/24 03:12:59;;;;;;;3.30;3.10;;;22.60;36.50;;;;;;5035582;28;20456;-64
2021/08/24 03:15:35;;;;;;;3.00;2.80;;;22.60;36.50;;;;;;5036129;28;20866;-64
2021/08/24 03:18:25;;;;;;;3.00;2.80;;;22.60;36.40;;;;;;5036983;28;20523;-64
2021/08/24 03:20:56;;;;;;;4.30;3.90;;;22.60;36.40;;;;;;5036320;28;20446;-64
2021/08/24 03:23:24;;;;;;;3.03;2.60;;;22.60;36.40;;;;;;5035603;28;20452;-64
2021/08/24 03:25:51;;;;;;;3.60;3.30;;;22.60;36.30;;;;;;5036551;28;20438;-63
2021/08/24 03:28:20;;;;;;;3.37;3.10;;;22.60;36.20;;;;;;5035716;28;20897;-64
2021/08/24 03:30:46;;;;;;;2.77;2.57;;;22.50;36.10;;;;;;5036840;28;20462;-63
2021/08/24 03:33:13;;;;;;;5.20;2.90;;;22.60;36.20;;;;;;5035801;28;20461;-63
2021/08/24 03:35:39;;;;;;;3.53;3.23;;;22.60;36.20;;;;;;5036832;28;20227;-64
2021/08/24 03:38:05;;;;;;;3.10;2.83;;;22.50;36.10;;;;;;5036663;28;20623;-64
2021/08/24 03:40:31;;;;;;;5.17;3.30;;;22.60;36.20;;;;;;5035725;28;20316;-65
2021/08/24 03:42:57;;;;;;;3.50;3.17;;;22.50;36.10;;;;;;5036432;28;20446;-64
2021/08/24 03:45:23;;;;;;;3.07;2.87;;;22.50;36.10;;;;;;5035187;28;20464;-64
2021/08/24 03:47:49;;;;;;;3.60;3.37;;;22.50;36.20;;;;;;5036485;28;20248;-64
2021/08/24 03:50:15;;;;;;;3.27;3.07;;;22.50;36.20;;;;;;5035280;28;20492;-63
2021/08/24 03:52:41;;;;;;;3.30;3.10;;;22.50;36.20;;;;;;5036934;28;20247;-63
2021/08/24 03:55:07;;;;;;;3.23;3.03;;;22.50;36.20;;;;;;5034764;28;20528;-64
2021/08/24 03:57:32;;;;;;;3.03;2.83;;;22.60;36.30;;;;;;5036607;28;20642;-64
2021/08/24 03:59:58;;;;;;;3.00;2.80;;;22.60;36.30;;;;;;5035021;28;20508;-64
2021/08/24 04:02:25;;;;;;;2.57;2.43;;;22.50;36.20;;;;;;5036405;28;20234;-64
2021/08/24 04:04:51;;;;;;;2.70;2.50;;;22.50;36.20;;;;;;5034593;28;20259;-63
2021/08/24 04:07:17;;;;;;;3.10;2.83;;;22.50;36.20;;;;;;5036169;28;20940;-63
2021/08/24 04:09:42;;;;;;;3.10;2.90;;;22.50;36.10;;;;;;5050390;28;20484;-64
2021/08/24 04:12:08;;;;;;;3.00;2.80;;;22.50;36.10;;;;;;5034218;28;21034;-64
2021/08/24 04:14:34;;;;;;;3.43;3.13;;;22.50;36.10;;;;;;5035448;28;20315;-64
2021/08/24 04:16:59;;;;;;;4.10;3.83;;;22.50;36.20;;;;;;5034752;28;20843;-63
2021/08/24 04:19:25;;;;;;;3.40;3.10;;;22.50;36.20;;;;;;5035653;28;20231;-63
2021/08/24 04:21:50;;;;;;;3.80;3.53;;;22.50;36.30;;;;;;5020004;28;20237;-63
2021/08/24 04:24:16;;;;;;;3.57;3.27;;;22.50;36.20;;;;;;4996415;28;20263;-64
2021/08/24 04:26:41;;;;;;;3.33;3.03;;;22.50;36.40;;;;;;4994634;28;20805;-64
2021/08/24 04:29:07;;;;;;;3.30;3.10;;;22.50;36.40;;;;;;4996267;28;20233;-63
2021/08/24 04:31:39;;;;;;;4.07;3.70;;;22.50;36.40;;;;;;4994248;28;20221;-63
2021/08/24 04:34:05;;;;;;;3.00;2.80;;;22.50;36.50;;;;;;4996698;28;20237;-64
2021/08/24 04:36:31;;;;;;;5.53;3.33;;;22.50;36.50;;;;;;4993068;28;20456;-66
2021/08/24 04:38:56;;;;;;;3.60;3.30;;;22.50;36.50;;;;;;4996205;28;20522;-64
2021/08/24 04:41:22;;;;;;;3.97;3.57;;;22.50;36.50;;;;;;4996825;28;21470;-65
2021/08/24 04:43:48;;;;;;;4.17;3.83;;;22.50;36.50;;;;;;4998375;28;20252;-66
2021/08/24 04:46:13;;;;;;;3.50;3.20;;;22.50;36.50;;;;;;4999122;28;20463;-65
2021/08/24 04:48:39;;;;;;;4.27;3.77;;;22.50;36.40;;;;;;4995941;28;20237;-65
2021/08/24 04:51:04;;;;;;;4.33;3.47;;;22.50;36.50;;;;;;4994805;28;20316;-65
2021/08/24 04:53:30;;;;;;;5.90;3.57;;;22.50;36.30;;;;;;4996176;28;20254;-65
2021/08/24 04:55:56;;;;;;;3.10;3.00;;;22.50;35.90;;;;;;4996021;28;20231;-65
2021/08/24 04:58:22;;;;;;;3.50;3.23;;;22.50;35.80;;;;;;4994204;28;20233;-65
2021/08/24 05:00:47;;;;;;;4.30;3.30;;;22.40;35.70;;;;;;5005942;28;20474;-64
2021/08/24 05:03:14;;;;;;;3.80;3.57;;;22.40;35.70;;;;;;5015144;28;20255;-66
2021/08/24 05:05:39;;;;;;;4.33;3.30;;;22.40;36.00;;;;;;5013362;28;20804;-65
2021/08/24 05:08:05;;;;;;;4.33;3.93;;;22.40;36.00;;;;;;5014870;28;20459;-65
2021/08/24 05:10:32;;;;;;;6.30;5.30;;;22.40;36.00;;;;;;5013454;28;20243;-67
2021/08/24 05:13:00;;;;;;;4.37;3.97;;;22.40;36.00;;;;;;5015086;28;20538;-64
2021/08/24 05:15:26;;;;;;;4.50;4.10;;;22.40;36.00;;;;;;5014665;28;20458;-65
2021/08/24 05:17:52;;;;;;;5.73;3.77;;;22.40;36.10;;;;;;5013513;28;20491;-65
2021/08/24 05:20:18;;;;;;;4.60;3.73;;;22.40;36.10;;;;;;5014797;28;20486;-65
2021/08/24 05:22:44;;;;;;;4.10;3.60;;;22.40;36.10;;;;;;5013740;28;20221;-65
2021/08/24 05:25:12;;;;;;;4.03;3.63;;;22.40;36.00;;;;;;5014892;28;20462;-65
2021/08/24 05:27:37;;;;;;;3.57;3.37;;;22.40;36.00;;;;;;5013571;28;20562;-65
2021/08/24 05:30:05;;;;;;;4.30;4.00;;;22.40;36.00;;;;;;5015090;28;20866;-66
2021/08/24 05:32:31;;;;;;;5.00;3.80;;;22.40;36.10;;;;;;5012634;28;20459;-66
2021/08/24 05:34:56;;;;;;;3.63;3.33;;;22.40;36.00;;;;;;5014963;28;20525;-66
2021/08/24 05:37:22;;;;;;;4.10;3.80;;;22.40;36.00;;;;;;5012833;28;20228;-66
2021/08/24 05:39:47;;;;;;;3.40;3.10;;;22.40;36.20;;;;;;5015010;28;20221;-68
2021/08/24 05:42:13;;;;;;;3.80;3.50;;;22.40;36.20;;;;;;5013335;28;20232;-65
2021/08/24 05:44:38;;;;;;;4.13;3.83;;;22.40;36.10;;;;;;5014873;28;20719;-63
2021/08/24 05:47:04;;;;;;;3.90;3.60;;;22.40;36.00;;;;;;5015971;28;20687;-65
2021/08/24 05:49:33;;;;;;;4.77;4.10;;;22.40;36.00;;;;;;5017905;28;20924;-66
2021/08/24 05:51:59;;;;;;;4.37;3.97;;;22.40;36.00;;;;;;5015037;28;20646;-67
2021/08/24 05:54:25;;;;;;;4.63;4.10;;;22.40;35.90;;;;;;5013698;28;20467;-68
2021/08/24 05:56:50;;;;;;;6.07;4.27;;;22.40;35.90;;;;;;5014328;28;20686;-65
2021/08/24 05:59:16;;;;;;;3.77;3.50;;;22.40;36.00;;;;;;5013373;28;20331;-68
2021/08/24 06:01:41;;;;;;;3.90;3.60;;;22.40;35.90;;;;;;5014700;28;20282;-66
2021/08/24 06:04:07;;;;;;;4.33;4.00;;;22.40;35.80;;;;;;5012956;28;20654;-68
2021/08/24 06:06:37;;;;;;;5.00;4.60;;;22.30;35.80;;;;;;5015375;28;20625;-66
2021/08/24 06:09:06;;;;;;;12.00;7.00;;;22.30;35.90;;;;;;5015571;28;20512;-66
2021/08/24 06:11:34;;;;;;;9.93;6.20;;;22.30;36.60;;;;;;5018018;28;20953;-66
2021/08/24 06:14:02;;;;;;;8.10;5.47;;;22.40;36.70;;;;;;5016854;28;20613;-67
2021/08/24 06:16:28;;;;;;;8.20;5.13;;;22.40;36.30;;;;;;5017557;28;20447;-66
2021/08/24 06:18:53;;;;;;;6.00;5.40;;;22.30;36.00;;;;;;5016892;28;20932;-65
2021/08/24 06:21:19;;;;;;;6.33;5.13;;;22.40;35.80;;;;;;5018401;28;20713;-66
2021/08/24 06:23:46;;;;;;;6.27;5.13;;;22.30;35.50;;;;;;5016378;28;20307;-66
2021/08/24 06:26:12;;;;;;;5.40;4.30;;;22.40;35.40;;;;;;5018130;28;20701;-66
2021/08/24 06:28:37;;;;;;;4.90;4.00;;;22.30;35.30;;;;;;5016474;28;20550;-65
2021/08/24 06:31:04;;;;;;;5.40;4.40;;;22.30;35.00;;;;;;5017530;28;20316;-65
2021/08/24 06:33:34;;;;;;;4.30;4.00;;;22.30;34.80;;;;;;5016116;28;20252;-66
2021/08/24 06:35:59;;;;;;;4.60;4.30;;;22.30;34.70;;;;;;5017964;28;20808;-66
2021/08/24 06:38:25;;;;;;;5.47;4.97;;;22.30;34.60;;;;;;5015837;28;20455;-66
2021/08/24 06:40:51;;;;;;;4.13;3.83;;;22.30;34.50;;;;;;5017523;28;20589;-65
2021/08/24 06:43:17;;;;;;;4.90;4.43;;;22.30;34.40;;;;;;5016662;28;20246;-66
2021/08/24 06:45:42;;;;;;;3.70;3.40;;;22.30;34.30;;;;;;5016805;28;20224;-64
2021/08/24 06:48:08;;;;;;;4.13;3.83;;;22.20;35.00;;;;;;5015948;28;20459;-64
2021/08/24 06:50:35;;;;;;;4.60;3.90;;;22.20;34.20;;;;;;5017323;28;20280;-66
2021/08/24 06:53:01;;;;;;;5.20;3.77;;;22.20;34.20;;;;;;5038431;28;20541;-66
2021/08/24 06:55:30;;;;;;;7.13;4.47;;;22.20;34.10;;;;;;5018652;28;20462;-65
2021/08/24 06:58:00;;;;;;;7.23;4.43;;;22.20;34.20;;;;;;5019616;28;20475;-65
2021/08/24 07:00:27;;;;;;;5.17;4.10;;;22.20;34.30;;;;;;5017556;28;20865;-65
2021/08/24 07:02:55;;;;;;;6.43;3.93;;;22.20;34.40;;;;;;5015491;28;20451;-70
2021/08/24 07:05:25;;;;;;;3.97;3.40;;;22.20;34.60;;;;;;5018583;28;20962;-65
2021/08/24 07:07:50;;;;;;;4.17;3.60;;;22.20;34.80;;;;;;5018932;28;20507;-65
2021/08/24 07:10:17;;;;;;;6.20;3.80;;;22.20;34.80;;;;;;5019259;28;20950;-65
2021/08/24 07:12:43;;;;;;;5.07;4.60;;;22.20;34.70;;;;;;5017565;28;20220;-65
2021/08/24 07:15:10;;;;;;;4.37;4.07;;;22.20;34.70;;;;;;5016689;28;20998;-65
2021/08/24 07:17:36;;;;;;;4.47;4.07;;;22.20;34.80;;;;;;5017970;28;20505;-64
2021/08/24 07:20:04;;;;;;;5.57;4.00;;;22.20;34.90;;;;;;5017653;28;20454;-64
2021/08/24 07:22:30;;;;;;;4.60;3.30;;;22.30;34.90;;;;;;5017228;28;20585;-64
2021/08/24 07:24:55;;;;;;;6.50;3.90;;;22.20;34.70;;;;;;5017180;28;20552;-65
2021/08/24 07:27:21;;;;;;;3.73;3.43;;;22.20;34.40;;;;;;5016286;28;20243;-65
2021/08/24 07:29:46;;;;;;;3.60;3.40;;;22.20;34.20;;;;;;5017107;28;20263;-65
2021/08/24 07:32:11;;;;;;;4.20;3.43;;;22.20;34.00;;;;;;5017675;28;20363;-65
2021/08/24 07:34:38;;;;;;;3.37;3.10;;;22.20;33.70;;;;;;5018200;28;20217;-65
2021/08/24 07:37:04;;;;;;;4.20;3.43;;;22.20;33.60;;;;;;5018380;28;20247;-65
2021/08/24 07:39:30;;;;;;;4.13;3.73;;;22.20;33.50;;;;;;5018285;28;20443;-64
2021/08/24 07:41:55;;;;;;;4.00;3.70;;;22.20;33.60;;;;;;5016824;28;20455;-65
2021/08/24 07:44:24;;;;;;;5.37;2.97;;;22.20;33.60;;;;;;5017381;28;20447;-65
2021/08/24 07:46:51;;;;;;;3.87;3.57;;;22.20;33.60;;;;;;5018122;28;20220;-65
2021/08/24 07:49:17;;;;;;;5.93;2.93;;;22.20;33.50;;;;;;5017969;28;20582;-65
2021/08/24 07:51:43;;;;;;;3.73;3.43;;;22.20;33.50;;;;;;5018558;28;20451;-65
2021/08/24 07:54:09;;;;;;;3.47;3.27;;;22.20;33.40;;;;;;5017720;28;20451;-65
2021/08/24 07:56:34;;;;;;;4.53;3.80;;;22.10;33.30;;;;;;5016431;28;20439;-64
2021/08/24 07:59:00;;;;;;;3.00;2.80;;;22.10;33.30;;;;;;5017138;28;20281;-65
2021/08/24 08:01:25;;;;;;;4.17;3.50;;;22.20;33.40;;;;;;5017994;28;20263;-65
2021/08/24 08:03:51;;;;;;;3.30;3.10;;;22.20;33.50;;;;;;5018584;28;20216;-65
2021/08/24 08:06:17;;;;;;;5.40;3.57;;;22.20;33.40;;;;;;5017122;28;20223;-65
2021/08/24 08:08:42;;;;;;;3.40;3.20;;;22.10;33.40;;;;;;5016445;28;20232;-65
2021/08/24 08:11:08;;;;;;;3.70;3.40;;;22.10;33.40;;;;;;5017333;28;20228;-65
2021/08/24 08:13:33;;;;;;;3.33;3.13;;;22.10;33.40;;;;;;5017506;28;20235;-65
2021/08/24 08:15:59;;;;;;;3.87;3.50;;;22.10;33.50;;;;;;5017851;28;20224;-65
2021/08/24 08:18:24;;;;;;;3.00;2.87;;;22.20;33.80;;;;;;5018425;28;20235;-65
2021/08/24 08:20:50;;;;;;;3.60;3.30;;;22.10;33.80;;;;;;5017754;28;20255;-65
2021/08/24 08:23:18;;;;;;;3.80;3.50;;;22.10;33.70;;;;;;5016566;28;20311;-65
2021/08/24 08:25:43;;;;;;;3.53;3.20;;;22.10;33.80;;;;;;5016457;28;20923;-65
2021/08/24 08:28:09;;;;;;;3.87;3.53;;;22.10;33.70;;;;;;5017340;28;20483;-65
2021/08/24 08:30:35;;;;;;;3.97;3.20;;;22.10;33.50;;;;;;5017084;28;20228;-65
2021/08/24 08:33:04;;;;;;;3.47;3.17;;;22.10;33.40;;;;;;5016936;28;20229;-64
2021/08/24 08:35:31;;;;;;;3.70;3.40;;;22.10;33.30;;;;;;5017248;28;20991;-64
2021/08/24 08:37:58;;;;;;;3.63;3.27;;;22.10;33.30;;;;;;5015471;28;20969;-64
2021/08/24 08:40:47;;;;;;;7.77;3.90;;;22.10;33.30;;;;;;5016858;28;20750;-65
2021/08/24 08:43:43;;;;;;;3.47;3.27;;;22.10;33.20;;;;;;5016608;28;20455;-65
2021/08/24 08:46:34;;;;;;;3.17;2.97;;;22.10;33.00;;;;;;5016057;28;20451;-65
2021/08/24 08:49:37;;;;;;;5.50;3.43;;;22.10;33.00;;;;;;5015901;28;21013;-65
2021/08/24 08:52:34;;;;;;;5.37;3.33;;;22.10;33.00;;;;;;5016300;28;20477;-65
2021/08/24 08:55:20;;;;;;;3.53;3.23;;;22.20;33.20;;;;;;5015783;28;20451;-65
2021/08/24 08:58:10;;;;;;;5.57;3.30;;;22.20;33.00;;;;;;5015466;28;20645;-65
2021/08/24 09:00:51;;;;;;;4.00;3.17;;;22.20;32.90;;;;;;4985495;28;20447;-65
2021/08/24 09:03:22;;;;;;;3.80;3.50;;;22.20;32.50;;;;;;5015919;28;20521;-65
2021/08/24 09:05:49;;;;;;;3.67;3.37;;;22.10;32.40;;;;;;5015869;28;20447;-65
2021/08/24 09:08:19;;;;;;;3.50;3.20;;;22.10;32.40;;;;;;5016505;28;20582;-65
2021/08/24 09:10:48;;;;;;;3.53;3.30;;;22.20;32.50;;;;;;5017397;28;20462;-65
2021/08/24 09:13:38;;;;;;;3.27;3.07;;;22.10;32.60;;;;;;5016506;28;20861;-65
2021/08/24 09:16:08;;;;;;;4.00;3.70;;;22.10;32.80;;;;;;5015866;28;20604;-65
2021/08/24 09:18:45;;;;;;;4.20;3.90;;;22.10;33.20;;;;;;5017061;28;21022;-65
2021/08/24 09:21:18;;;;;;;3.90;3.57;;;22.10;33.40;;;;;;5016185;28;20494;-65
2021/08/24 09:23:44;;;;;;;3.80;3.50;;;22.10;33.40;;;;;;5015784;28;20516;-65
2021/08/24 09:26:37;;;;;;;4.40;3.97;;;22.10;33.50;;;;;;5016347;28;21025;-66
2021/08/24 09:29:04;;;;;;;3.80;3.40;;;22.10;33.60;;;;;;5015960;28;20228;-66
2021/08/24 09:31:30;;;;;;;3.73;3.20;;;22.10;33.60;;;;;;5014063;28;20547;-66
2021/08/24 09:33:55;;;;;;;3.50;3.30;;;22.10;33.50;;;;;;5016322;28;21045;-66
2021/08/24 09:36:21;;;;;;;3.63;3.43;;;22.10;33.40;;;;;;5016989;28;20224;-65
2021/08/24 09:38:57;;;;;;;4.27;3.87;;;22.10;33.30;;;;;;5016788;28;20741;-65
2021/08/24 09:41:32;;;;;;;3.10;2.90;;;22.10;33.20;;;;;;5015220;28;20253;-65
2021/08/24 09:44:24;;;;;;;3.33;3.03;;;22.10;33.20;;;;;;5018845;28;20446;-64
2021/08/24 09:46:52;;;;;;;3.63;3.33;;;22.10;33.10;;;;;;5019258;28;21157;-65
2021/08/24 09:49:20;;;;;;;3.20;3.00;;;22.10;33.00;;;;;;5019871;28;20495;-65
2021/08/24 09:52:02;;;;;;;3.40;3.10;;;22.10;33.00;;;;;;5020008;28;20443;-64
2021/08/24 09:54:31;;;;;;;3.90;3.60;;;22.10;33.00;;;;;;5019861;28;20443;-64
2021/08/24 09:57:04;;;;;;;4.07;3.60;;;22.10;33.30;;;;;;5018676;28;20530;-65
2021/08/24 09:59:42;;;;;;;3.63;3.40;;;22.10;33.40;;;;;;5019464;28;20447;-65
2021/08/24 10:02:34;;;;;;;3.80;3.50;;;22.10;33.40;;;;;;5021080;28;20427;-64
2021/08/24 10:04:59;;;;;;;3.53;3.33;;;22.10;33.40;;;;;;5018604;28;20644;-64
2021/08/24 10:07:43;;;;;;;3.10;2.90;;;22.10;33.40;;;;;;5019639;28;20522;-66
2021/08/24 10:10:27;;;;;;;4.10;3.80;;;22.10;33.20;;;;;;5019417;28;20225;-66
2021/08/24 10:12:54;;;;;;;3.80;3.33;;;22.10;33.00;;;;;;5019034;28;20439;-65
2021/08/24 10:15:32;;;;;;;4.70;3.60;;;22.10;32.90;;;;;;5019671;28;20443;-66
2021/08/24 10:18:23;;;;;;;3.33;3.13;;;22.00;32.80;;;;;;5019685;28;20447;-65
2021/08/24 10:20:59;;;;;;;3.90;3.60;;;22.10;33.00;;;;;;5015343;28;20473;-65
2021/08/24 10:23:34;;;;;;;3.40;3.20;;;22.10;33.00;;;;;;5020609;28;20450;-64
2021/08/24 10:26:02;;;;;;;2.60;2.50;;;22.10;32.80;;;;;;5018370;28;20457;-65
2021/08/24 10:28:50;;;;;;;3.43;3.00;;;22.00;32.60;;;;;;5019031;28;20508;-64
2021/08/24 10:31:35;;;;;;;3.77;3.50;;;22.00;32.60;;;;;;5019894;28;20469;-64
2021/08/24 10:34:24;;;;;;;3.23;3.03;;;22.00;32.50;;;;;;5018339;28;20447;-64
2021/08/24 10:36:50;;;;;;;3.83;3.63;;;22.00;32.70;;;;;;5019650;28;20458;-65
2021/08/24 10:39:22;;;;;;;3.33;3.07;;;22.00;32.80;;;;;;5020056;28;20451;-66
2021/08/24 10:42:00;;;;;;;4.47;4.07;;;22.00;32.80;;;;;;5017784;28;20224;-65
2021/08/24 10:44:27;;;;;;;3.77;3.47;;;22.10;32.70;;;;;;5019409;28;20460;-65
2021/08/24 10:47:06;;;;;;;4.50;4.20;;;22.00;32.70;;;;;;5018906;28;20799;-65
2021/08/24 10:49:32;;;;;;;4.00;3.70;;;22.00;32.60;;;;;;5017989;28;20459;-65
2021/08/24 10:52:03;;;;;;;3.83;3.53;;;22.10;32.60;;;;;;5018156;28;20474;-67
2021/08/24 10:54:51;;;;;;;4.00;3.70;;;22.00;32.60;;;;;;5018228;28;20439;-65
2021/08/24 10:57:25;;;;;;;4.23;3.60;;;22.00;32.80;;;;;;5018155;28;20452;-65
2021/08/24 11:00:12;;;;;;;3.40;3.20;;;22.00;32.80;;;;;;5017946;28;20528;-65
2021/08/24 11:03:01;;;;;;;3.47;3.27;;;22.00;32.90;;;;;;5019563;28;20447;-65
2021/08/24 11:05:47;;;;;;;3.53;3.33;;;22.00;33.00;;;;;;5017707;28;20466;-65
2021/08/24 11:08:47;;;;;;;3.67;3.47;;;22.00;33.30;;;;;;5018791;28;20447;-65
2021/08/24 11:11:56;;;;;;;4.30;3.63;;;22.00;33.00;;;;;;5011261;28;20543;-65
2021/08/24 11:14:51;;;;;;;3.20;3.00;;;22.00;33.00;;;;;;5036122;28;20527;-65
2021/08/24 11:17:42;;;;;;;3.40;3.20;;;22.00;33.00;;;;;;5039220;28;20480;-65
2021/08/24 11:20:22;;;;;;;4.20;3.90;;;22.00;33.10;;;;;;5037393;28;20652;-65
2021/08/24 11:23:23;;;;;;;3.70;3.40;;;22.10;33.20;;;;;;5038503;28;20457;-65
2021/08/24 11:26:09;;;;;;;3.70;3.40;;;22.00;32.90;;;;;;5037346;28;20442;-66
2021/08/24 11:29:00;;;;;;;4.37;4.07;;;22.00;32.90;;;;;;5037852;28;20519;-64
2021/08/24 11:31:27;;;;;;;4.40;4.10;;;22.00;32.90;;;;;;5010277;28;20459;-64
2021/08/24 11:34:21;;;;;;;3.40;3.20;;;22.00;33.00;;;;;;5038648;28;21037;-65
2021/08/24 11:37:01;;;;;;;3.97;3.67;;;22.00;33.10;;;;;;5037027;28;20591;-65
2021/08/24 11:39:41;;;;;;;3.57;3.30;;;22.00;33.40;;;;;;5038494;28;20577;-65
2021/08/24 11:42:12;;;;;;;4.17;3.87;;;22.00;33.40;;;;;;5036503;28;20470;-65
2021/08/24 11:44:46;;;;;;;3.73;3.50;;;22.00;33.30;;;;;;5038044;28;20494;-65
2021/08/24 11:47:14;;;;;;;4.23;3.17;;;22.00;33.30;;;;;;5038443;28;20445;-65
2021/08/24 11:49:45;;;;;;;3.30;3.10;;;22.00;33.40;;;;;;5037651;28;20822;-65
2021/08/24 11:52:14;;;;;;;4.60;3.60;;;22.00;33.50;;;;;;5036518;28;20516;-65
2021/08/24 11:54:55;;;;;;;3.43;3.23;;;22.00;33.40;;;;;;5037459;28;20442;-65
2021/08/24 11:57:40;;;;;;;3.80;3.60;;;22.00;33.50;;;;;;5037642;28;20820;-65
2021/08/24 12:00:07;;;;;;;3.63;3.33;;;22.00;33.60;;;;;;5036854;28;20725;-65
2021/08/24 12:02:37;;;;;;;3.70;3.50;;;22.00;33.80;;;;;;5037478;28;20473;-65
2021/08/24 12:05:04;;;;;;;3.97;3.10;;;22.00;34.10;;;;;;5037903;28;20469;-65
2021/08/24 12:07:38;;;;;;;3.90;3.60;;;22.00;34.30;;;;;;5036640;28;20520;-65
2021/08/24 12:10:24;;;;;;;3.63;3.40;;;22.00;34.30;;;;;;5036679;28;20466;-65
2021/08/24 12:12:59;;;;;;;3.77;3.53;;;22.00;34.20;;;;;;5038103;28;20442;-64
2021/08/24 12:15:30;;;;;;;4.40;4.10;;;22.00;34.10;;;;;;5036354;28;20496;-64
2021/08/24 12:18:00;;;;;;;4.53;3.53;;;22.00;34.10;;;;;;5037013;28;20969;-65
2021/08/24 12:20:43;;;;;;;3.70;3.50;;;22.00;34.00;;;;;;5037421;28;20496;-64
2021/08/24 12:23:14;;;;;;;4.50;4.20;;;22.00;34.00;;;;;;5036791;28;20515;-66
2021/08/24 12:25:47;;;;;;;3.30;3.10;;;22.00;34.00;;;;;;5035720;28;20446;-65
2021/08/24 12:28:15;;;;;;;3.80;3.10;;;22.10;34.20;;;;;;5013501;28;20459;-66
2021/08/24 12:30:57;;;;;;;3.93;3.63;;;22.00;34.10;;;;;;5010476;28;20462;-65
2021/08/24 12:33:44;;;;;;;4.47;4.07;;;22.00;34.20;;;;;;5005696;28;20974;-65
2021/08/24 12:36:22;;;;;;;4.00;3.67;;;22.00;34.20;;;;;;5006572;28;20536;-65
2021/08/24 12:38:58;;;;;;;6.33;4.27;;;22.00;34.20;;;;;;5005990;28;21855;-65
2021/08/24 12:41:35;;;;;;;3.70;3.50;;;22.00;34.40;;;;;;5007831;28;20451;-65
2021/08/24 12:44:10;;;;;;;4.73;4.10;;;22.00;34.50;;;;;;5011941;28;20458;-65
2021/08/24 12:46:36;;;;;;;4.70;4.20;;;22.00;35.00;;;;;;5006756;28;20461;-65
2021/08/24 12:49:30;;;;;;;4.20;3.80;;;22.10;35.40;;;;;;5006001;28;20455;-69
2021/08/24 12:51:55;;;;;;;3.90;3.60;;;22.00;35.20;;;;;;5002358;28;21021;-66
2021/08/24 12:54:25;;;;;;;3.90;3.60;;;22.00;35.30;;;;;;5006048;28;20823;-66
2021/08/24 12:57:02;;;;;;;4.53;4.20;;;22.00;35.30;;;;;;5007374;28;20216;-66
2021/08/24 12:59:31;;;;;;;3.67;3.47;;;22.00;35.30;;;;;;5004776;28;20536;-66
2021/08/24 13:02:31;;;;;;;4.37;3.97;;;22.10;35.40;;;;;;5005996;28;20824;-66
2021/08/24 13:05:15;;;;;;;4.50;4.10;;;22.00;35.10;;;;;;5006054;28;20440;-66
2021/08/24 13:08:04;;;;;;;4.10;3.70;;;22.00;35.00;;;;;;5007613;28;20546;-65
2021/08/24 13:10:41;;;;;;;4.70;4.30;;;22.00;34.90;;;;;;4995407;28;20518;-66
2021/08/24 13:13:31;;;;;;;5.27;4.73;;;22.00;35.00;;;;;;4997535;28;20456;-65
2021/08/24 13:16:07;;;;;;;4.17;3.77;;;22.00;34.80;;;;;;4994404;28;20456;-65